createdAt,value
2023-04-30T00:03:29.536Z,98301.00
2023-04-30T00:07:31.560Z,98315.00
2023-04-30T00:11:32.516Z,98308.00
2023-04-30T00:15:33.655Z,98302.00
2023-04-30T00:19:34.951Z,98308.00
2023-04-30T00:23:36.642Z,98308.00
2023-04-30T00:27:40.108Z,98308.00
2023-04-30T00:31:41.262Z,98309.00
2023-04-30T00:35:42.416Z,98313.00
2023-04-30T00:39:43.540Z,98307.00
2023-04-30T00:43:46.471Z,98315.00
2023-04-30T00:47:47.987Z,98310.00
2023-04-30T00:51:50.439Z,98310.00
2023-04-30T00:55:51.517Z,98321.00
2023-04-30T00:59:53.368Z,98316.00
2023-04-30T01:03:54.871Z,98319.00
2023-04-30T01:07:56.641Z,98316.00
2023-04-30T01:12:01.466Z,98322.00
2023-04-30T01:16:09.700Z,98320.00
2023-04-30T01:20:12.428Z,98315.00
2023-04-30T01:24:17.270Z,98322.00
2023-04-30T01:28:19.986Z,98321.00
2023-04-30T01:32:21.119Z,98329.00
2023-04-30T01:36:53.892Z,98328.00
2023-04-30T01:41:10.809Z,98321.00
2023-04-30T01:45:31.977Z,98328.00
2023-04-30T01:49:53.513Z,98319.00
2023-04-30T01:53:57.568Z,98330.00
2023-04-30T01:58:00.744Z,98336.00
2023-04-30T02:02:02.654Z,98335.00
2023-04-30T02:06:03.834Z,98326.00
2023-04-30T02:10:06.786Z,98335.00
2023-04-30T02:14:07.901Z,98341.00
2023-04-30T02:18:08.935Z,98334.00
2023-04-30T02:22:09.955Z,98340.00
2023-04-30T02:26:10.950Z,98260.00
2023-04-30T02:30:12.281Z,98337.00
2023-04-30T02:34:13.429Z,98337.00
2023-04-30T02:38:14.384Z,98340.00
2023-04-30T02:42:15.823Z,98344.00
2023-04-30T02:46:17.856Z,98335.00
2023-04-30T02:50:19.056Z,98340.00
2023-04-30T02:54:20.466Z,98335.00
2023-04-30T02:58:21.603Z,98333.00
2023-04-30T03:02:22.999Z,98331.00
2023-04-30T03:06:24.358Z,98332.00
2023-04-30T03:10:25.561Z,98334.00
2023-04-30T03:14:26.526Z,98331.00
2023-04-30T03:18:28.473Z,98330.00
2023-04-30T03:22:30.198Z,98335.00
2023-04-30T03:26:31.344Z,98345.00
2023-04-30T03:30:32.451Z,98350.00
2023-04-30T03:34:33.554Z,98340.00
2023-04-30T03:38:34.693Z,98351.00
2023-04-30T03:42:35.870Z,98347.00
2023-04-30T03:46:37.036Z,98340.00
2023-04-30T03:50:38.221Z,98341.00
2023-04-30T03:54:39.282Z,98344.00
2023-04-30T03:58:40.367Z,98337.00
2023-04-30T04:02:41.744Z,98345.00
2023-04-30T04:06:42.888Z,98339.00
2023-04-30T04:10:44.026Z,98340.00
2023-04-30T04:14:44.994Z,98336.00
2023-04-30T04:18:45.946Z,98329.00
2023-04-30T04:22:47.014Z,98337.00
2023-04-30T04:26:48.259Z,98340.00
2023-04-30T04:30:49.253Z,98349.00
2023-04-30T04:34:50.338Z,98353.00
2023-04-30T04:38:52.216Z,98358.00
2023-04-30T04:42:53.153Z,98358.00
2023-04-30T04:46:55.972Z,98362.00
2023-04-30T04:50:57.010Z,98360.00
2023-04-30T04:54:57.996Z,98361.00
2023-04-30T04:58:58.925Z,98360.00
2023-04-30T05:03:00.135Z,98369.00
2023-04-30T05:07:02.284Z,98367.00
2023-04-30T05:11:03.446Z,98368.00
2023-04-30T05:15:05.971Z,98376.00
2023-04-30T05:19:08.877Z,98375.00
2023-04-30T05:23:10.051Z,98366.00
2023-04-30T05:27:11.227Z,98375.00
2023-04-30T05:31:12.397Z,98374.00
2023-04-30T05:35:13.449Z,98365.00
2023-04-30T05:39:14.602Z,98374.00
2023-04-30T05:43:15.664Z,98372.00
2023-04-30T05:47:16.985Z,98382.00
2023-04-30T05:51:18.270Z,98378.00
2023-04-30T05:55:19.344Z,98375.00
2023-04-30T05:59:20.364Z,98380.00
2023-04-30T06:03:21.733Z,98379.00
2023-04-30T06:07:22.593Z,98384.00
2023-04-30T06:11:25.043Z,98382.00
2023-04-30T06:15:26.301Z,98372.00
2023-04-30T06:19:27.367Z,98376.00
2023-04-30T06:23:28.481Z,98376.00
2023-04-30T06:27:31.350Z,98376.00
2023-04-30T06:31:32.520Z,98378.00
2023-04-30T06:35:33.664Z,98367.00
2023-04-30T06:39:34.618Z,98369.00
2023-04-30T06:43:35.674Z,98380.00
2023-04-30T06:47:37.596Z,98371.00
2023-04-30T06:51:40.546Z,98380.00
2023-04-30T06:55:42.193Z,98366.00
2023-04-30T06:59:43.753Z,98374.00
2023-04-30T07:03:44.911Z,98382.00
2023-04-30T07:07:46.295Z,98375.00
2023-04-30T07:11:47.256Z,98372.00
2023-04-30T07:15:48.367Z,98361.00
2023-04-30T07:19:49.416Z,98373.00
2023-04-30T07:23:50.940Z,98376.00
2023-04-30T07:27:54.875Z,98356.00
2023-04-30T07:31:56.175Z,98364.00
2023-04-30T07:35:58.422Z,98362.00
2023-04-30T07:40:00.226Z,98371.00
2023-04-30T07:44:01.302Z,98377.00
2023-04-30T07:48:02.574Z,98370.00
2023-04-30T07:52:03.989Z,98368.00
2023-04-30T07:56:05.429Z,98371.00
2023-04-30T08:00:07.385Z,98380.00
2023-04-30T08:04:08.997Z,98383.00
2023-04-30T08:08:10.081Z,98386.00
2023-04-30T08:12:11.145Z,98382.00
2023-04-30T08:16:12.140Z,98381.00
2023-04-30T08:20:13.218Z,98384.00
2023-04-30T08:24:14.215Z,98388.00
2023-04-30T08:28:15.554Z,98378.00
2023-04-30T08:32:18.946Z,98380.00
2023-04-30T08:36:20.241Z,98373.00
2023-04-30T08:40:23.523Z,98376.00
2023-04-30T08:44:26.988Z,98361.00
2023-04-30T08:48:28.960Z,98374.00
2023-04-30T08:52:32.489Z,98368.00
2023-04-30T08:56:34.504Z,98368.00
2023-04-30T09:00:37.654Z,98364.00
2023-04-30T09:04:38.797Z,98375.00
2023-04-30T09:08:42.931Z,98381.00
2023-04-30T09:12:45.001Z,98372.00
2023-04-30T09:16:48.052Z,98370.00
2023-04-30T09:20:57.649Z,98377.00
2023-04-30T09:24:58.703Z,98381.00
2023-04-30T09:29:00.486Z,98366.00
2023-04-30T09:33:01.784Z,98380.00
2023-04-30T09:37:03.409Z,98378.00
2023-04-30T09:41:04.733Z,98383.00
2023-04-30T09:45:07.589Z,98383.00
2023-04-30T09:49:10.742Z,98370.00
2023-04-30T09:53:14.392Z,98362.00
2023-04-30T09:57:16.497Z,98364.00
2023-04-30T10:01:18.223Z,98352.00
2023-04-30T10:05:19.485Z,98324.00
2023-04-30T10:09:21.974Z,98341.00
2023-04-30T10:13:25.611Z,98326.00
2023-04-30T10:17:29.590Z,98334.00
2023-04-30T10:21:32.033Z,98329.00
2023-04-30T10:25:33.666Z,98331.00
2023-04-30T10:29:34.656Z,98335.00
2023-04-30T10:33:44.683Z,98331.00
2023-04-30T10:37:49.906Z,98339.00
2023-04-30T10:41:51.241Z,98316.00
2023-04-30T10:45:52.715Z,98312.00
2023-04-30T10:50:02.272Z,98307.00
2023-04-30T10:54:03.774Z,98308.00
2023-04-30T10:58:08.535Z,98290.00
2023-04-30T11:02:10.450Z,98306.00
2023-04-30T11:06:14.410Z,98296.00
2023-04-30T11:10:16.205Z,98292.00
2023-04-30T11:14:22.306Z,98295.00
2023-04-30T11:18:26.749Z,98291.00
2023-04-30T11:22:32.897Z,98285.00
2023-04-30T11:27:02.238Z,98281.00
2023-04-30T11:31:04.129Z,98273.00
2023-04-30T11:35:06.341Z,98288.00
2023-04-30T11:39:08.795Z,98269.00
2023-04-30T11:43:21.438Z,98263.00
2023-04-30T11:47:22.697Z,98252.00
2023-04-30T11:51:26.769Z,98256.00
2023-04-30T11:55:28.285Z,98260.00
2023-04-30T11:59:30.914Z,98261.00
2023-04-30T12:03:32.816Z,98259.00
2023-04-30T12:07:34.051Z,98246.00
2023-04-30T12:11:35.832Z,98254.00
2023-04-30T12:15:38.757Z,98248.00
2023-04-30T12:19:39.750Z,98252.00
2023-04-30T12:23:41.474Z,98256.00
2023-04-30T12:27:48.653Z,98232.00
2023-04-30T12:31:52.719Z,98222.00
2023-04-30T12:35:53.845Z,98244.00
2023-04-30T12:39:55.723Z,98251.00
2023-04-30T12:44:24.609Z,98248.00
2023-04-30T12:48:25.831Z,98238.00
2023-04-30T12:52:26.777Z,98241.00
2023-04-30T12:56:27.912Z,98238.00
2023-04-30T13:00:28.900Z,98222.00
2023-04-30T13:04:30.092Z,98217.00
2023-04-30T13:08:32.606Z,98214.00
2023-04-30T13:12:34.062Z,98220.00
2023-04-30T13:16:35.748Z,98219.00
2023-04-30T13:20:38.662Z,98203.00
2023-04-30T13:24:39.718Z,98189.00
2023-04-30T13:28:40.811Z,98198.00
2023-04-30T13:32:42.547Z,98182.00
2023-04-30T13:36:43.496Z,98167.00
2023-04-30T13:40:44.596Z,98169.00
2023-04-30T13:44:47.059Z,98186.00
2023-04-30T13:48:49.334Z,98168.00
2023-04-30T13:52:50.278Z,98177.00
2023-04-30T13:56:51.398Z,98162.00
2023-04-30T14:00:52.496Z,98158.00
2023-04-30T14:05:05.225Z,98169.00
2023-04-30T14:08:56.810Z,98165.00
2023-04-30T14:12:58.037Z,98168.00
2023-04-30T14:16:59.190Z,98166.00
2023-04-30T14:21:00.266Z,98167.00
2023-04-30T14:25:01.250Z,98137.00
2023-04-30T14:29:02.251Z,98160.00
2023-04-30T14:33:03.345Z,98151.00
2023-04-30T14:37:04.616Z,98072.00
2023-04-30T14:41:05.731Z,98154.00
2023-04-30T14:45:08.368Z,98151.00
2023-04-30T14:49:09.804Z,98138.00
2023-04-30T14:53:11.929Z,98132.00
2023-04-30T14:57:13.931Z,98130.00
2023-04-30T15:01:14.896Z,98135.00
2023-04-30T15:05:16.343Z,98131.00
2023-04-30T15:09:17.336Z,98121.00
2023-04-30T15:13:18.460Z,98111.00
2023-04-30T15:17:19.528Z,98122.00
2023-04-30T15:21:20.615Z,98123.00
2023-04-30T15:25:23.251Z,98116.00
2023-04-30T15:29:24.476Z,98106.00
2023-04-30T15:33:27.607Z,98109.00
2023-04-30T15:37:28.744Z,98112.00
2023-04-30T15:41:29.799Z,98093.00
2023-04-30T15:45:32.861Z,98107.00
2023-04-30T15:49:33.949Z,98097.00
2023-04-30T15:53:34.909Z,98093.00
2023-04-30T15:57:36.069Z,98091.00
2023-04-30T16:01:37.184Z,98088.00
2023-04-30T16:05:39.830Z,98101.00
2023-04-30T16:09:42.752Z,98106.00
2023-04-30T16:13:43.742Z,98096.00
2023-04-30T16:17:44.721Z,98084.00
2023-04-30T16:21:45.930Z,98084.00
2023-04-30T16:25:46.871Z,98018.00
2023-04-30T16:29:47.856Z,98070.00
2023-04-30T16:33:49.048Z,98069.00
2023-04-30T16:37:50.148Z,98076.00
2023-04-30T16:41:51.235Z,98077.00
2023-04-30T16:45:52.319Z,98080.00
2023-04-30T16:49:55.025Z,98075.00
2023-04-30T16:53:56.341Z,98066.00
2023-04-30T16:57:57.893Z,98060.00
2023-04-30T17:02:00.172Z,98057.00
2023-04-30T17:06:01.176Z,98058.00
2023-04-30T17:10:04.028Z,98063.00
2023-04-30T17:14:05.024Z,98058.00
2023-04-30T17:18:07.262Z,98047.00
2023-04-30T17:22:08.330Z,98057.00
2023-04-30T17:26:09.495Z,98063.00
2023-04-30T17:30:10.906Z,98046.00
2023-04-30T17:34:12.815Z,98049.00
2023-04-30T17:38:14.188Z,98048.00
2023-04-30T17:42:15.828Z,98053.00
2023-04-30T17:46:17.107Z,98056.00
2023-04-30T17:50:18.247Z,98042.00
2023-04-30T17:54:19.565Z,98054.00
2023-04-30T17:58:20.580Z,98051.00
2023-04-30T18:02:22.029Z,98043.00
2023-04-30T18:06:23.237Z,98046.00
2023-04-30T18:10:24.272Z,98043.00
2023-04-30T18:14:25.366Z,98047.00
2023-04-30T18:18:26.502Z,98047.00
2023-04-30T18:22:27.603Z,98056.00
2023-04-30T18:26:28.812Z,98039.00
2023-04-30T18:30:30.536Z,98038.00
2023-04-30T18:34:31.943Z,98036.00
2023-04-30T18:38:33.952Z,98042.00
2023-04-30T18:42:36.865Z,98031.00
2023-04-30T18:46:38.079Z,98032.00
2023-04-30T18:50:40.652Z,98034.00
2023-04-30T18:54:42.451Z,98027.00
2023-04-30T18:58:45.123Z,98038.00
2023-04-30T19:02:46.256Z,98023.00
2023-04-30T19:06:51.508Z,98035.00
2023-04-30T19:10:53.441Z,98030.00
2023-04-30T19:14:54.676Z,98037.00
2023-04-30T19:18:55.698Z,98044.00
2023-04-30T19:22:56.830Z,98039.00
2023-04-30T19:26:57.815Z,98032.00
2023-04-30T19:30:58.989Z,98041.00
2023-04-30T19:35:00.200Z,98043.00
2023-04-30T19:39:01.694Z,98048.00
2023-04-30T19:43:03.164Z,98050.00
2023-04-30T19:47:04.520Z,98056.00
2023-04-30T19:51:05.549Z,98063.00
2023-04-30T19:55:07.717Z,98051.00
2023-04-30T19:59:09.672Z,98060.00
2023-04-30T20:03:11.555Z,98057.00
2023-04-30T20:07:13.173Z,98052.00
2023-04-30T20:11:14.342Z,98054.00
2023-04-30T20:15:15.729Z,98047.00
2023-04-30T20:19:16.835Z,98060.00
2023-04-30T20:23:18.639Z,98057.00
2023-04-30T20:27:20.179Z,98059.00
2023-04-30T20:31:21.392Z,98054.00
2023-04-30T20:35:23.056Z,98066.00
2023-04-30T20:39:24.223Z,98051.00
2023-04-30T20:43:25.245Z,98062.00
2023-04-30T20:47:26.564Z,98060.00
2023-04-30T20:51:27.998Z,98058.00
2023-04-30T20:55:30.375Z,98055.00
2023-04-30T20:59:31.759Z,98059.00
2023-04-30T21:03:32.786Z,98053.00
2023-04-30T21:07:33.978Z,98052.00
2023-04-30T21:11:34.996Z,98055.00
2023-04-30T21:15:36.240Z,98058.00
2023-04-30T21:19:37.282Z,98069.00
2023-04-30T21:23:39.252Z,98064.00
2023-04-30T21:27:40.338Z,98070.00
2023-04-30T21:31:41.436Z,98067.00
2023-04-30T21:35:42.373Z,98064.00
2023-04-30T21:39:43.500Z,98064.00
2023-04-30T21:43:44.569Z,98068.00
2023-04-30T21:47:46.973Z,98063.00
2023-04-30T21:51:47.899Z,98061.00
2023-04-30T21:55:48.854Z,98061.00
2023-04-30T21:59:49.940Z,98050.00
2023-04-30T22:03:51.680Z,98054.00
2023-04-30T22:07:54.107Z,98044.00
2023-04-30T22:11:55.233Z,98050.00
2023-04-30T22:15:56.685Z,98060.00
2023-04-30T22:19:58.082Z,98047.00
2023-04-30T22:24:00.192Z,98047.00
2023-04-30T22:28:01.386Z,98044.00
2023-04-30T22:32:03.289Z,98048.00
2023-04-30T22:36:07.670Z,98044.00
2023-04-30T22:40:09.383Z,98041.00
2023-04-30T22:44:10.757Z,98040.00
2023-04-30T22:48:12.294Z,98035.00
2023-04-30T22:52:13.509Z,98045.00
2023-04-30T22:56:14.690Z,98037.00
2023-04-30T23:00:18.086Z,98031.00
2023-04-30T23:04:19.082Z,98035.00
2023-04-30T23:08:20.343Z,98055.00
2023-04-30T23:12:21.807Z,98036.00
2023-04-30T23:16:23.176Z,98022.00
2023-04-30T23:20:24.392Z,98016.00
2023-04-30T23:24:25.775Z,98017.00
2023-04-30T23:28:26.995Z,98030.00
2023-04-30T23:32:28.062Z,98014.00
2023-04-30T23:36:29.101Z,98022.00
2023-04-30T23:40:30.401Z,98011.00
2023-04-30T23:44:32.604Z,98003.00
2023-04-30T23:48:34.161Z,98001.00
2023-04-30T23:52:36.025Z,97996.00
2023-04-30T23:56:37.169Z,97997.00
